M I D A S
Marine Information and Data Acquisition System
Tripno 2264 of the Zeeleeuw from 2012-02-13 09:27:11 to 2012-02-13 15:21:38
Back to CruiseResearch ActivitiesStationsMapUnderway DataData graphs

EquipmentUnitsComment
TimeDGPSUTC
LatitudeDGPSDM.mWGS84
LongitudeDGPSDM.mWGS84
HeadingGyrodeg 
SOGDGPSknotsSpeed over ground
COGDGPSdegCourse over ground
DepthEcho soundermeters200 kHz
Missing or incorrect values are displayed as -999
Navigation data collected by the RV Zeeleeuw from 2012-02-13 07:31:11 to 2012-02-13 15:31:12
                                                                                    Next 1000 lines
Time Latitude Longitude Heading SOG COG Depth
2012-02-13 07:31:22 51°13.636 2°56.019 126.2 -999 303 -999
2012-02-13 07:31:27 51°13.636 2°56.019 126.2 0.1 11 -999
2012-02-13 07:31:31 51°13.636 2°56.018 126.2 0.2 301 -999
2012-02-13 07:31:37 51°13.636 2°56.018 126.2 -999 298 -999
2012-02-13 07:31:42 51°13.636 2°56.018 126.2 0.1 219 -999
2012-02-13 07:31:47 51°13.636 2°56.018 126.2 0.1 92 -999
2012-02-13 07:31:51 51°13.636 2°56.018 126.2 0.1 136 -999
2012-02-13 07:31:57 51°13.636 2°56.019 126.1 0.2 115 -999
2012-02-13 07:32:01 51°13.636 2°56.018 126.1 0.1 197 -999
2012-02-13 07:32:07 51°13.636 2°56.018 126.1 0.1 299 -999
2012-02-13 07:32:11 51°13.635 2°56.018 126.1 -999 238 -999
2012-02-13 07:32:17 51°13.635 2°56.019 126.1 0.1 291 -999
2012-02-13 07:32:22 51°13.635 2°56.019 126.3 0.1 278 -999
2012-02-13 07:32:27 51°13.636 2°56.02 126.4 -999 58 -999
2012-02-13 07:32:31 51°13.636 2°56.02 126.4 0.1 113 -999
2012-02-13 07:32:37 51°13.636 2°56.02 126.5 0.1 90 -999
2012-02-13 07:32:42 51°13.636 2°56.021 126.5 0.1 101 -999
2012-02-13 07:32:47 51°13.636 2°56.021 126.5 0.1 110 -999
2012-02-13 07:32:51 51°13.636 2°56.021 126.5 -999 91 -999
2012-02-13 07:32:57 51°13.636 2°56.021 126.5 0.1 104 -999
2012-02-13 07:33:02 51°13.636 2°56.02 126.5 0.1 284 -999
2012-02-13 07:33:07 51°13.636 2°56.02 126.5 0.1 322 -999
2012-02-13 07:33:11 51°13.636 2°56.02 126.5 0.1 328 -999
2012-02-13 07:33:17 51°13.636 2°56.02 126.5 -999 14 -999
2012-02-13 07:33:22 51°13.636 2°56.02 126.5 -999 172 -999
2012-02-13 07:33:27 51°13.636 2°56.02 126.5 0.1 292 -999
2012-02-13 07:33:31 51°13.636 2°56.019 126.6 0.2 297 -999
2012-02-13 07:33:37 51°13.636 2°56.02 126.6 0.1 292 -999
2012-02-13 07:33:41 51°13.636 2°56.02 126.6 -999 281 -999
2012-02-13 07:33:47 51°13.636 2°56.02 126.6 0.1 292 -999
2012-02-13 07:33:51 51°13.636 2°56.02 126.6 -999 296 -999
2012-02-13 07:33:57 51°13.636 2°56.02 126.6 -999 115 -999
2012-02-13 07:34:02 51°13.636 2°56.02 126.6 0.1 119 -999
2012-02-13 07:34:07 51°13.636 2°56.02 126.5 -999 82 -999
2012-02-13 07:34:11 51°13.637 2°56.019 126.5 0.1 309 -999
2012-02-13 07:34:17 51°13.636 2°56.02 126.5 0.1 96 -999
2012-02-13 07:34:22 51°13.636 2°56.02 126.5 0.1 127 -999
2012-02-13 07:34:27 51°13.637 2°56.019 126.5 0.2 298 -999
2012-02-13 07:34:31 51°13.636 2°56.019 126.5 0.1 298 -999
2012-02-13 07:34:37 51°13.636 2°56.02 126.5 -999 305 -999
2012-02-13 07:34:42 51°13.636 2°56.019 126.5 0.1 277 -999
2012-02-13 07:34:47 51°13.636 2°56.02 126.4 0.1 77 -999
2012-02-13 07:34:51 51°13.636 2°56.02 126.4 0.1 124 -999
2012-02-13 07:34:57 51°13.636 2°56.019 126.4 -999 203 -999
2012-02-13 07:35:02 51°13.636 2°56.02 126.4 -999 90 -999
2012-02-13 07:35:07 51°13.636 2°56.019 126.3 -999 74 -999
2012-02-13 07:35:11 51°13.636 2°56.019 126.3 -999 242 -999
2012-02-13 07:35:17 51°13.636 2°56.019 126.2 -999 126 -999
2012-02-13 07:35:22 51°13.636 2°56.019 126.1 0.1 278 -999
2012-02-13 07:35:27 51°13.636 2°56.019 125.9 0.1 311 -999
2012-02-13 07:35:31 51°13.636 2°56.019 125.8 0.1 146 -999
2012-02-13 07:35:37 51°13.636 2°56.019 125.7 0.1 316 -999
2012-02-13 07:35:42 51°13.636 2°56.019 125.6 0.1 294 -999
2012-02-13 07:35:47 51°13.636 2°56.019 125.5 -999 295 -999
2012-02-13 07:35:51 51°13.636 2°56.019 125.4 -999 311 -999
2012-02-13 07:35:57 51°13.636 2°56.019 125.3 -999 329 -999
2012-02-13 07:36:01 51°13.636 2°56.019 125.2 -999 139 -999
2012-02-13 07:36:07 51°13.637 2°56.019 125.2 -999 346 -999
2012-02-13 07:36:11 51°13.637 2°56.019 125.2 0.1 292 -999
2012-02-13 07:36:17 51°13.637 2°56.019 125.2 0.1 321 -999
2012-02-13 07:36:21 51°13.637 2°56.02 125.2 0.1 152 -999
2012-02-13 07:36:27 51°13.637 2°56.02 125.2 0.1 118 -999
2012-02-13 07:36:31 51°13.637 2°56.02 125.2 0.1 127 -999
2012-02-13 07:36:37 51°13.637 2°56.02 125.2 -999 24 -999
2012-02-13 07:36:42 51°13.637 2°56.02 125.2 -999 115 -999
2012-02-13 07:36:47 51°13.637 2°56.021 125.2 0.1 136 -999
2012-02-13 07:36:51 51°13.637 2°56.021 125.2 0.1 95 -999
2012-02-13 07:36:57 51°13.637 2°56.02 125.2 -999 263 -999
2012-02-13 07:37:02 51°13.637 2°56.02 125.3 0.1 312 -999
2012-02-13 07:37:07 51°13.637 2°56.02 125.3 -999 258 -999
2012-02-13 07:37:11 51°13.637 2°56.021 125.3 -999 101 -999
2012-02-13 07:37:17 51°13.637 2°56.021 125.3 0.1 114 -999
2012-02-13 07:37:22 51°13.637 2°56.021 125.4 -999 255 -999
2012-02-13 07:37:27 51°13.637 2°56.021 125.5 0.1 107 -999
2012-02-13 07:37:31 51°13.637 2°56.021 125.5 -999 131 -999
2012-02-13 07:37:37 51°13.637 2°56.02 125.5 0.1 187 -999
2012-02-13 07:37:42 51°13.637 2°56.02 125.6 0.1 168 -999
2012-02-13 07:37:47 51°13.637 2°56.021 125.7 0.1 122 -999
2012-02-13 07:37:51 51°13.637 2°56.021 125.7 0.1 134 -999
2012-02-13 07:37:57 51°13.637 2°56.02 125.7 0.1 319 -999
2012-02-13 07:38:03 51°13.637 2°56.02 125.7 0.1 121 -999
2012-02-13 07:38:08 51°13.637 2°56.02 125.7 0.1 118 -999
2012-02-13 07:38:12 51°13.637 2°56.02 125.7 -999 255 -999
2012-02-13 07:38:17 51°13.637 2°56.02 125.8 0.1 109 -999
2012-02-13 07:38:22 51°13.637 2°56.019 125.8 -999 255 -999
2012-02-13 07:38:28 51°13.637 2°56.02 125.8 -999 305 -999
2012-02-13 07:38:32 51°13.637 2°56.019 125.8 0.1 205 -999
2012-02-13 07:38:37 51°13.637 2°56.019 125.8 0.1 205 -999
2012-02-13 07:38:42 51°13.637 2°56.02 125.9 -999 78 -999
2012-02-13 07:38:47 51°13.637 2°56.02 126 0.2 14 -999
2012-02-13 07:38:52 51°13.637 2°56.019 126.1 0.1 359 -999
2012-02-13 07:38:57 51°13.637 2°56.019 126.1 -999 3 -999
2012-02-13 07:39:02 51°13.636 2°56.019 126.2 0.2 199 -999
2012-02-13 07:39:07 51°13.636 2°56.019 126.2 0.1 186 -999
2012-02-13 07:39:12 51°13.637 2°56.019 126.2 -999 122 -999
2012-02-13 07:39:17 51°13.637 2°56.019 126.2 -999 358 -999
2012-02-13 07:39:22 51°13.637 2°56.019 126.1 -999 277 -999
2012-02-13 07:39:27 51°13.637 2°56.019 126.1 -999 1 -999
2012-02-13 07:39:32 51°13.637 2°56.019 126.4 0.1 13 -999
2012-02-13 07:39:37 51°13.638 2°56.019 126.7 0.2 19 -999
2012-02-13 07:39:42 51°13.638 2°56.019 126.9 0.1 66 -999
2012-02-13 07:39:47 51°13.638 2°56.019 126.9 0.1 27 -999
2012-02-13 07:39:52 51°13.637 2°56.019 126.9 -999 112 -999
2012-02-13 07:39:57 51°13.637 2°56.019 126.9 0.1 199 -999
2012-02-13 07:40:02 51°13.637 2°56.019 126.9 0.1 189 -999
2012-02-13 07:40:07 51°13.637 2°56.019 126.9 -999 258 -999
2012-02-13 07:40:12 51°13.637 2°56.019 126.9 0.1 335 -999
2012-02-13 07:40:17 51°13.638 2°56.019 127 0.1 23 -999
2012-02-13 07:40:22 51°13.637 2°56.019 127.1 -999 182 -999
2012-02-13 07:40:27 51°13.636 2°56.019 127.1 0.2 177 -999
2012-02-13 07:40:32 51°13.637 2°56.019 127 0.3 188 -999
2012-02-13 07:40:37 51°13.636 2°56.019 126.9 0.2 192 -999
2012-02-13 07:40:42 51°13.636 2°56.019 126.8 0.3 191 -999
2012-02-13 07:40:47 51°13.637 2°56.019 126.7 0.1 199 -999
2012-02-13 07:40:52 51°13.637 2°56.019 126.7 0.2 195 -999
2012-02-13 07:40:57 51°13.637 2°56.019 126.7 -999 216 -999
2012-02-13 07:41:02 51°13.637 2°56.019 126.8 0.1 201 -999
2012-02-13 07:41:07 51°13.637 2°56.019 127.1 0.1 186 -999
2012-02-13 07:41:12 51°13.637 2°56.019 127.2 -999 316 -999
2012-02-13 07:41:17 51°13.637 2°56.019 127.5 0.1 186 -999
2012-02-13 07:41:22 51°13.637 2°56.019 127.8 0.1 209 -999
2012-02-13 07:41:27 51°13.637 2°56.019 128.1 0.1 200 -999
2012-02-13 07:41:32 51°13.637 2°56.019 128.2 -999 225 -999
2012-02-13 07:41:37 51°13.637 2°56.018 128.6 0.1 338 -999
2012-02-13 07:41:42 51°13.637 2°56.018 128.7 0.1 317 -999
2012-02-13 07:41:47 51°13.637 2°56.018 128.9 -999 312 -999
2012-02-13 07:41:52 51°13.636 2°56.018 129.1 0.1 263 -999
2012-02-13 07:41:57 51°13.636 2°56.018 129.2 -999 258 -999
2012-02-13 07:42:02 51°13.636 2°56.018 129.3 0.1 14 -999
2012-02-13 07:42:07 51°13.636 2°56.018 129.5 0.2 12 -999
2012-02-13 07:42:12 51°13.636 2°56.018 129.6 0.1 6 -999
2012-02-13 07:42:16 51°13.636 2°56.018 129.7 -999 286 -999
2012-02-13 07:42:22 51°13.636 2°56.018 129.7 0.1 26 -999
2012-02-13 07:42:27 51°13.635 2°56.018 129.8 0.1 226 -999
2012-02-13 07:42:32 51°13.635 2°56.018 129.8 0.2 193 -999
2012-02-13 07:42:36 51°13.635 2°56.018 129.8 0.1 196 -999
2012-02-13 07:42:42 51°13.635 2°56.018 129.8 0.1 203 -999
2012-02-13 07:42:47 51°13.636 2°56.018 129.8 0.1 29 -999
2012-02-13 07:42:52 51°13.635 2°56.019 129.8 -999 190 -999
2012-02-13 07:42:57 51°13.635 2°56.019 129.8 0.1 170 -999
2012-02-13 07:43:02 51°13.635 2°56.018 129.7 -999 293 -999
2012-02-13 07:43:07 51°13.636 2°56.018 129.6 -999 327 -999
2012-02-13 07:43:12 51°13.636 2°56.019 129.5 0.1 23 -999
2012-02-13 07:43:17 51°13.636 2°56.019 129.4 -999 22 -999
2012-02-13 07:43:21 51°13.636 2°56.019 129.4 0.1 177 8.6
2012-02-13 07:43:27 51°13.636 2°56.019 129.4 0.1 17 -999
2012-02-13 07:43:32 51°13.636 2°56.019 129.4 0.1 3 -999
2012-02-13 07:43:37 51°13.636 2°56.019 129.4 0.1 332 -999
2012-02-13 07:43:41 51°13.636 2°56.019 129.4 0.2 4 8.4
2012-02-13 07:43:47 51°13.636 2°56.019 129.4 -999 129 -999
2012-02-13 07:43:52 51°13.636 2°56.019 129.3 -999 318 -999
2012-02-13 07:43:57 51°13.637 2°56.019 129.2 0.2 352 -999
2012-02-13 07:44:02 51°13.637 2°56.019 128.9 0.2 350 -999
2012-02-13 07:44:07 51°13.636 2°56.019 128.6 0.1 191 -999
2012-02-13 07:44:12 51°13.636 2°56.019 128.1 0.2 187 -999
2012-02-13 07:44:17 51°13.635 2°56.019 127.5 0.3 190 -999
2012-02-13 07:44:22 51°13.636 2°56.019 127.1 0.1 183 -999
2012-02-13 07:44:27 51°13.637 2°56.019 127.1 0.1 353 -999
2012-02-13 07:44:32 51°13.637 2°56.019 127.3 0.2 6 -999
2012-02-13 07:44:36 51°13.637 2°56.019 127.4 -999 111 -999
2012-02-13 07:44:42 51°13.637 2°56.019 127.4 -999 24 -999
2012-02-13 07:44:47 51°13.637 2°56.019 127.4 0.1 35 -999
2012-02-13 07:44:52 51°13.637 2°56.019 127.4 -999 80 -999
2012-02-13 07:44:57 51°13.637 2°56.019 127.2 -999 48 -999
2012-02-13 07:45:02 51°13.637 2°56.019 126.9 0.1 22 -999
2012-02-13 07:45:07 51°13.637 2°56.019 126.6 0.2 -999 -999
2012-02-13 07:45:12 51°13.637 2°56.019 126.4 0.1 2 -999
2012-02-13 07:45:17 51°13.637 2°56.019 126.3 0.1 182 -999
2012-02-13 07:45:22 51°13.637 2°56.019 126.3 0.1 185 -999
2012-02-13 07:45:27 51°13.637 2°56.019 126.3 -999 187 -999
2012-02-13 07:45:32 51°13.638 2°56.019 126.3 0.2 29 -999
2012-02-13 07:45:37 51°13.638 2°56.019 126.3 0.2 28 -999
2012-02-13 07:45:42 51°13.638 2°56.02 126.3 0.2 26 -999
2012-02-13 07:45:47 51°13.637 2°56.02 126.3 0.1 50 -999
2012-02-13 07:45:52 51°13.638 2°56.019 126.3 0.1 11 -999
2012-02-13 07:45:57 51°13.638 2°56.02 126.3 -999 88 -999
2012-02-13 07:46:02 51°13.638 2°56.02 126.3 0.1 139 -999
2012-02-13 07:46:07 51°13.638 2°56.02 126.3 -999 262 -999
2012-02-13 07:46:12 51°13.638 2°56.02 126.3 0.1 335 -999
2012-02-13 07:46:17 51°13.638 2°56.02 126.3 -999 346 -999
2012-02-13 07:46:22 51°13.638 2°56.02 126.3 -999 227 -999
2012-02-13 07:46:27 51°13.638 2°56.02 126.3 -999 18 -999
2012-02-13 07:46:32 51°13.638 2°56.02 126.3 0.1 200 -999
2012-02-13 07:46:37 51°13.638 2°56.02 126.3 -999 183 -999
2012-02-13 07:46:42 51°13.638 2°56.02 126.3 -999 4 -999
2012-02-13 07:46:47 51°13.639 2°56.02 126.3 0.1 330 -999
2012-02-13 07:46:52 51°13.639 2°56.02 126.3 0.1 342 -999
2012-02-13 07:46:57 51°13.639 2°56.019 126.3 0.1 293 -999
2012-02-13 07:47:02 51°13.638 2°56.019 126.3 0.1 190 -999
2012-02-13 07:47:07 51°13.638 2°56.02 126.5 -999 109 -999
2012-02-13 07:47:12 51°13.639 2°56.02 126.5 0.1 21 -999
2012-02-13 07:47:16 51°13.639 2°56.02 126.5 0.1 37 -999
2012-02-13 07:47:22 51°13.638 2°56.019 126.5 -999 158 -999
2012-02-13 07:47:27 51°13.638 2°56.02 126.5 0.1 154 -999
2012-02-13 07:47:32 51°13.638 2°56.02 126.7 0.2 179 -999
2012-02-13 07:47:37 51°13.638 2°56.019 126.8 0.2 195 -999
2012-02-13 07:47:42 51°13.638 2°56.019 126.8 0.1 349 -999
2012-02-13 07:47:47 51°13.638 2°56.02 126.8 0.1 8 -999
2012-02-13 07:47:52 51°13.638 2°56.02 126.8 0.2 354 -999
2012-02-13 07:47:57 51°13.638 2°56.02 126.8 -999 101 -999
2012-02-13 07:48:02 51°13.638 2°56.02 126.8 0.2 24 -999
2012-02-13 07:48:07 51°13.638 2°56.02 126.8 0.1 29 -999
2012-02-13 07:48:12 51°13.638 2°56.02 126.8 0.1 34 -999
2012-02-13 07:48:17 51°13.637 2°56.019 126.8 0.1 139 -999
2012-02-13 07:48:22 51°13.637 2°56.019 126.8 0.1 87 -999
2012-02-13 07:48:27 51°13.636 2°56.018 126.8 0.1 24 -999
2012-02-13 07:48:32 51°13.636 2°56.018 126.8 -999 46 -999
2012-02-13 07:48:37 51°13.636 2°56.018 126.8 -999 16 -999
2012-02-13 07:48:42 51°13.636 2°56.018 126.7 -999 48 -999
2012-02-13 07:48:47 51°13.636 2°56.018 126.7 -999 157 -999
2012-02-13 07:48:52 51°13.637 2°56.019 126.7 -999 132 -999
2012-02-13 07:48:57 51°13.636 2°56.018 126.7 0.1 182 -999
2012-02-13 07:49:02 51°13.637 2°56.018 126.7 0.1 11 -999
2012-02-13 07:49:07 51°13.636 2°56.018 126.8 -999 57 -999
2012-02-13 07:49:12 51°13.636 2°56.018 126.8 -999 52 -999
2012-02-13 07:49:16 51°13.636 2°56.018 126.9 0.1 174 -999
2012-02-13 07:49:22 51°13.636 2°56.018 126.9 0.1 155 -999
2012-02-13 07:49:27 51°13.636 2°56.018 127 0.1 350 -999
2012-02-13 07:49:32 51°13.636 2°56.018 127 0.1 2 -999
2012-02-13 07:49:37 51°13.636 2°56.018 127.1 0.1 10 -999
2012-02-13 07:49:42 51°13.636 2°56.018 127.1 0.1 350 -999
2012-02-13 07:49:47 51°13.636 2°56.018 127.1 0.1 29 -999
2012-02-13 07:49:52 51°13.636 2°56.018 127.1 0.1 284 -999
2012-02-13 07:49:57 51°13.635 2°56.018 127.1 0.2 220 -999
2012-02-13 07:50:02 51°13.636 2°56.018 127.1 0.1 202 -999
2012-02-13 07:50:07 51°13.636 2°56.018 127.1 0.1 236 -999
2012-02-13 07:50:12 51°13.636 2°56.017 127.1 0.1 247 -999
2012-02-13 07:50:17 51°13.636 2°56.018 127.1 0.1 201 -999
2012-02-13 07:50:22 51°13.636 2°56.018 127.1 0.2 212 -999
2012-02-13 07:50:27 51°13.636 2°56.018 127.1 0.1 315 -999
2012-02-13 07:50:32 51°13.636 2°56.018 127.1 0.1 54 -999
2012-02-13 07:50:37 51°13.636 2°56.018 127.1 0.1 45 -999
2012-02-13 07:50:42 51°13.636 2°56.018 127.1 -999 5 -999
2012-02-13 07:50:47 51°13.636 2°56.018 127.1 0.1 359 -999
2012-02-13 07:50:52 51°13.636 2°56.018 127.1 0.3 17 -999
2012-02-13 07:50:57 51°13.636 2°56.018 127.1 -999 67 -999
2012-02-13 07:51:02 51°13.636 2°56.018 127.1 0.1 152 -999
2012-02-13 07:51:07 51°13.636 2°56.017 127.1 0.1 345 -999
2012-02-13 07:51:12 51°13.636 2°56.017 127.1 0.3 347 -999
2012-02-13 07:51:17 51°13.635 2°56.017 127.1 0.2 200 -999
2012-02-13 07:51:22 51°13.635 2°56.018 127.2 0.3 181 -999
2012-02-13 07:51:27 51°13.636 2°56.017 127.3 -999 245 -999
2012-02-13 07:51:32 51°13.636 2°56.018 127.4 0.1 59 -999
2012-02-13 07:51:37 51°13.636 2°56.018 127.4 0.1 38 -999
2012-02-13 07:51:42 51°13.636 2°56.018 127.4 0.1 139 -999
2012-02-13 07:51:47 51°13.636 2°56.018 127.5 0.1 12 -999
2012-02-13 07:51:52 51°13.636 2°56.018 127.5 -999 299 -999
2012-02-13 07:51:57 51°13.636 2°56.018 127.5 0.1 161 -999
2012-02-13 07:52:02 51°13.636 2°56.018 127.5 0.2 176 -999
2012-02-13 07:52:07 51°13.636 2°56.018 127.5 0.1 153 -999
2012-02-13 07:52:12 51°13.636 2°56.019 127.5 0.2 154 -999
2012-02-13 07:52:17 51°13.636 2°56.018 127.5 0.1 164 -999
2012-02-13 07:52:22 51°13.635 2°56.018 127.5 0.3 180 -999
2012-02-13 07:52:27 51°13.636 2°56.018 127.5 0.1 216 -999
2012-02-13 07:52:32 51°13.635 2°56.018 127.5 0.2 185 -999
2012-02-13 07:52:37 51°13.635 2°56.019 127.5 0.2 160 -999
2012-02-13 07:52:42 51°13.636 2°56.019 127.5 0.1 45 -999
2012-02-13 07:52:47 51°13.635 2°56.018 127.5 0.1 238 -999
2012-02-13 07:52:52 51°13.636 2°56.018 127.5 -999 60 -999
2012-02-13 07:52:57 51°13.636 2°56.018 127.5 0.1 357 -999
2012-02-13 07:53:02 51°13.636 2°56.018 127.5 0.2 323 -999
2012-02-13 07:53:07 51°13.636 2°56.019 127.5 -999 265 -999
2012-02-13 07:53:12 51°13.635 2°56.018 127.5 0.1 224 -999
2012-02-13 07:53:17 51°13.635 2°56.019 127.4 0.1 214 -999
2012-02-13 07:53:22 51°13.635 2°56.019 127.4 0.1 213 -999
2012-02-13 07:53:27 51°13.635 2°56.019 127.4 0.1 196 -999
2012-02-13 07:53:32 51°13.635 2°56.019 127.4 -999 216 -999
2012-02-13 07:53:37 51°13.636 2°56.019 127.4 0.1 246 -999
2012-02-13 07:53:42 51°13.636 2°56.019 127.3 0.1 113 -999
2012-02-13 07:53:47 51°13.636 2°56.019 127.2 -999 96 -999
2012-02-13 07:53:52 51°13.636 2°56.019 127.2 0.2 181 -999
2012-02-13 07:53:57 51°13.635 2°56.019 127.2 0.2 179 -999
2012-02-13 07:54:02 51°13.635 2°56.019 127.2 0.2 186 -999
2012-02-13 07:54:07 51°13.636 2°56.019 127.2 0.2 183 -999
2012-02-13 07:54:12 51°13.636 2°56.018 127.2 0.2 187 -999
2012-02-13 07:54:17 51°13.636 2°56.018 127.2 0.1 39 -999
2012-02-13 07:54:22 51°13.637 2°56.018 127.2 0.2 14 -999
2012-02-13 07:54:27 51°13.637 2°56.018 127.1 0.3 344 -999
2012-02-13 07:54:32 51°13.636 2°56.018 127.1 0.1 268 -999
2012-02-13 07:54:37 51°13.636 2°56.018 127.1 -999 263 -999
2012-02-13 07:54:42 51°13.636 2°56.018 127.1 -999 307 -999
2012-02-13 07:54:47 51°13.636 2°56.018 127.1 0.1 173 -999
2012-02-13 07:54:52 51°13.636 2°56.018 127.1 0.1 184 -999
2012-02-13 07:54:57 51°13.636 2°56.018 127.1 0.1 205 -999
2012-02-13 07:55:02 51°13.637 2°56.018 127.1 0.1 157 -999
2012-02-13 07:55:07 51°13.638 2°56.018 127.1 0.3 -999 -999
2012-02-13 07:55:12 51°13.637 2°56.018 127.1 0.2 351 -999
2012-02-13 07:55:17 51°13.637 2°56.018 127.1 0.1 20 -999
2012-02-13 07:55:22 51°13.637 2°56.018 127.1 0.1 60 -999
2012-02-13 07:55:27 51°13.637 2°56.018 127.2 0.1 162 -999
2012-02-13 07:55:32 51°13.637 2°56.018 127.2 0.1 136 -999
2012-02-13 07:55:37 51°13.637 2°56.018 127.2 0.1 83 -999
2012-02-13 07:55:42 51°13.637 2°56.019 127.3 0.1 150 -999
2012-02-13 07:55:47 51°13.637 2°56.019 127.3 0.1 122 -999
2012-02-13 07:55:52 51°13.637 2°56.018 127.3 -999 145 -999
2012-02-13 07:55:57 51°13.637 2°56.018 127.4 0.1 161 -999
2012-02-13 07:56:02 51°13.637 2°56.018 127.4 -999 187 -999
2012-02-13 07:56:07 51°13.637 2°56.018 127.4 0.1 235 -999
2012-02-13 07:56:12 51°13.637 2°56.018 127.4 0.1 183 -999
2012-02-13 07:56:17 51°13.637 2°56.018 127.4 -999 139 -999
2012-02-13 07:56:22 51°13.637 2°56.018 127.4 -999 113 -999
2012-02-13 07:56:27 51°13.636 2°56.018 127.4 0.1 174 -999
2012-02-13 07:56:32 51°13.637 2°56.018 127.5 0.1 121 -999
2012-02-13 07:56:37 51°13.637 2°56.018 127.5 0.2 12 -999
2012-02-13 07:56:42 51°13.637 2°56.018 127.5 0.1 357 -999
2012-02-13 07:56:47 51°13.637 2°56.018 127.5 -999 175 -999
2012-02-13 07:56:52 51°13.637 2°56.018 127.5 0.1 31 -999
2012-02-13 07:56:57 51°13.637 2°56.018 127.5 0.2 26 -999
2012-02-13 07:57:02 51°13.637 2°56.017 127.4 0.2 358 -999
2012-02-13 07:57:07 51°13.636 2°56.017 127.4 0.1 219 -999
2012-02-13 07:57:12 51°13.636 2°56.018 127.3 -999 149 -999
2012-02-13 07:57:17 51°13.637 2°56.018 127.3 0.1 30 -999
2012-02-13 07:57:22 51°13.637 2°56.017 127.3 0.1 6 -999
2012-02-13 07:57:27 51°13.636 2°56.017 127.3 0.1 260 -999
2012-02-13 07:57:32 51°13.636 2°56.017 127.2 0.2 212 -999
2012-02-13 07:57:37 51°13.636 2°56.017 127.2 0.1 218 -999
2012-02-13 07:57:42 51°13.636 2°56.018 127.2 0.3 188 -999
2012-02-13 07:57:47 51°13.636 2°56.017 127.2 -999 41 -999
2012-02-13 07:57:52 51°13.637 2°56.017 127.2 0.2 331 -999
2012-02-13 07:57:57 51°13.636 2°56.018 127.2 0.1 149 -999
2012-02-13 07:58:02 51°13.636 2°56.018 127.2 0.1 139 -999
2012-02-13 07:58:07 51°13.636 2°56.018 127.2 0.1 185 -999
2012-02-13 07:58:12 51°13.636 2°56.018 127.2 0.1 185 -999
2012-02-13 07:58:17 51°13.636 2°56.018 127.2 -999 4 -999
2012-02-13 07:58:22 51°13.636 2°56.018 127.2 -999 178 -999
2012-02-13 07:58:27 51°13.637 2°56.018 127.3 -999 8 -999
2012-02-13 07:58:32 51°13.637 2°56.018 127.3 0.1 345 -999
2012-02-13 07:58:37 51°13.637 2°56.018 127.3 -999 321 -999
2012-02-13 07:58:42 51°13.637 2°56.018 127.3 -999 89 -999
2012-02-13 07:58:47 51°13.637 2°56.018 127.2 0.1 358 -999
2012-02-13 07:58:52 51°13.637 2°56.018 127.2 0.1 358 -999
2012-02-13 07:58:57 51°13.637 2°56.018 127.2 0.1 356 -999
2012-02-13 07:59:02 51°13.637 2°56.018 127.2 0.1 9 -999
2012-02-13 07:59:07 51°13.637 2°56.018 127.2 0.1 347 -999
2012-02-13 07:59:12 51°13.637 2°56.018 127.2 0.1 352 -999
2012-02-13 07:59:17 51°13.637 2°56.019 127.2 0.1 95 -999
2012-02-13 07:59:22 51°13.637 2°56.019 127.2 0.1 68 -999
2012-02-13 07:59:27 51°13.636 2°56.019 127.2 -999 156 -999
2012-02-13 07:59:32 51°13.636 2°56.018 127.2 -999 207 -999
2012-02-13 07:59:37 51°13.636 2°56.018 127.2 -999 230 -999
2012-02-13 07:59:42 51°13.636 2°56.019 127.2 0.2 176 -999
2012-02-13 07:59:47 51°13.636 2°56.019 127.2 -999 21 -999
2012-02-13 07:59:52 51°13.636 2°56.019 127.2 -999 226 -999
2012-02-13 07:59:57 51°13.636 2°56.019 127.2 0.1 18 -999
2012-02-13 08:00:02 51°13.636 2°56.019 127.2 -999 44 -999
2012-02-13 08:00:07 51°13.636 2°56.019 127.2 0.1 34 -999
2012-02-13 08:00:12 51°13.636 2°56.019 127.2 0.1 355 -999
2012-02-13 08:00:17 51°13.636 2°56.019 127.2 0.1 25 -999
2012-02-13 08:00:22 51°13.635 2°56.019 127.2 -999 246 -999
2012-02-13 08:00:27 51°13.635 2°56.019 127.2 0.1 212 -999
2012-02-13 08:00:32 51°13.635 2°56.019 127.2 -999 321 -999
2012-02-13 08:00:36 51°13.636 2°56.019 127.2 0.1 36 -999
2012-02-13 08:00:42 51°13.636 2°56.019 127.2 0.2 28 -999
2012-02-13 08:00:47 51°13.636 2°56.019 127.2 0.2 14 -999
2012-02-13 08:00:52 51°13.635 2°56.019 127.2 0.1 252 -999
2012-02-13 08:00:57 51°13.635 2°56.019 127.2 0.2 205 -999
2012-02-13 08:01:02 51°13.635 2°56.019 127.2 0.1 191 -999
2012-02-13 08:01:07 51°13.635 2°56.019 127.2 -999 87 -999
2012-02-13 08:01:12 51°13.635 2°56.019 127.2 0.1 83 -999
2012-02-13 08:01:17 51°13.635 2°56.019 127.1 0.1 8 -999
2012-02-13 08:01:22 51°13.635 2°56.019 127.1 0.1 353 -999
2012-02-13 08:01:27 51°13.635 2°56.019 127.1 -999 26 -999
2012-02-13 08:01:32 51°13.635 2°56.019 127.1 0.1 156 -999
2012-02-13 08:01:37 51°13.635 2°56.019 127 0.1 186 -999
2012-02-13 08:01:42 51°13.636 2°56.018 127 0.3 345 -999
2012-02-13 08:01:47 51°13.636 2°56.019 126.9 0.1 5 -999
2012-02-13 08:01:52 51°13.636 2°56.019 126.9 -999 123 -999
2012-02-13 08:01:56 51°13.636 2°56.019 126.9 0.1 70 -999
2012-02-13 08:02:03 51°13.637 2°56.019 126.9 0.3 1 -999
2012-02-13 08:02:07 51°13.637 2°56.019 126.9 0.1 4 -999
2012-02-13 08:02:12 51°13.637 2°56.019 126.9 -999 355 -999
2012-02-13 08:02:17 51°13.636 2°56.019 126.9 0.2 144 -999
2012-02-13 08:02:22 51°13.636 2°56.019 126.9 0.2 124 -999
2012-02-13 08:02:27 51°13.636 2°56.019 126.9 0.1 103 -999
2012-02-13 08:02:32 51°13.636 2°56.018 126.9 0.1 299 -999
2012-02-13 08:02:37 51°13.637 2°56.018 126.9 0.1 351 -999
2012-02-13 08:02:42 51°13.637 2°56.018 126.9 0.1 1 -999
2012-02-13 08:02:47 51°13.636 2°56.018 126.9 0.1 106 -999
2012-02-13 08:02:53 51°13.637 2°56.018 126.9 0.1 25 -999
2012-02-13 08:02:57 51°13.636 2°56.018 126.9 -999 30 -999
2012-02-13 08:03:01 51°13.636 2°56.018 126.9 0.1 314 -999
2012-02-13 08:03:07 51°13.636 2°56.018 126.9 0.1 296 -999
2012-02-13 08:03:12 51°13.636 2°56.018 126.9 -999 348 -999
2012-02-13 08:03:17 51°13.636 2°56.018 126.9 0.1 348 -999
2012-02-13 08:03:22 51°13.635 2°56.018 126.9 0.1 18 -999
2012-02-13 08:03:27 51°13.635 2°56.018 126.9 0.1 34 -999
2012-02-13 08:03:32 51°13.635 2°56.018 126.9 -999 317 -999
2012-02-13 08:03:37 51°13.635 2°56.018 126.9 0.1 38 -999
2012-02-13 08:03:42 51°13.635 2°56.018 126.9 0.1 127 -999
2012-02-13 08:03:47 51°13.635 2°56.018 126.9 0.1 182 -999
2012-02-13 08:03:52 51°13.635 2°56.018 126.9 0.1 149 -999
2012-02-13 08:03:57 51°13.635 2°56.018 127 0.1 80 -999
2012-02-13 08:04:02 51°13.635 2°56.017 127.1 0.1 319 -999
2012-02-13 08:04:07 51°13.635 2°56.018 127.1 0.2 193 -999
2012-02-13 08:04:12 51°13.635 2°56.018 127.1 0.1 134 -999
2012-02-13 08:04:17 51°13.635 2°56.018 127.1 0.1 136 -999
2012-02-13 08:04:22 51°13.635 2°56.019 127.1 0.2 166 -999
2012-02-13 08:04:26 51°13.635 2°56.019 127.1 0.1 122 -999
2012-02-13 08:04:31 51°13.636 2°56.019 127.1 0.2 43 -999
2012-02-13 08:04:37 51°13.636 2°56.018 127.1 0.1 82 -999
2012-02-13 08:04:42 51°13.635 2°56.018 127.1 0.1 105 -999
2012-02-13 08:04:47 51°13.635 2°56.018 127.2 0.1 233 -999
2012-02-13 08:04:52 51°13.636 2°56.018 127.2 0.1 337 -999
2012-02-13 08:04:58 51°13.636 2°56.018 127.2 0.2 358 -999
2012-02-13 08:05:02 51°13.636 2°56.018 127.2 0.1 332 -999
2012-02-13 08:05:07 51°13.636 2°56.018 127.2 0.2 357 -999
2012-02-13 08:05:12 51°13.636 2°56.018 127.2 0.2 321 -999
2012-02-13 08:05:17 51°13.636 2°56.018 127.2 0.1 310 -999
2012-02-13 08:05:22 51°13.635 2°56.018 127.2 0.1 294 -999
2012-02-13 08:05:27 51°13.635 2°56.018 127.2 0.1 269 -999
2012-02-13 08:05:31 51°13.635 2°56.018 127.2 -999 120 -999
2012-02-13 08:05:36 51°13.635 2°56.019 127.2 0.1 160 -999
2012-02-13 08:05:42 51°13.635 2°56.018 127.2 0.1 169 -999
2012-02-13 08:05:48 51°13.636 2°56.018 127.2 -999 347 -999
2012-02-13 08:05:52 51°13.636 2°56.018 127.2 0.1 176 -999
2012-02-13 08:05:57 51°13.636 2°56.019 127.2 0.2 141 -999
2012-02-13 08:06:02 51°13.636 2°56.018 127.1 -999 106 -999
2012-02-13 08:06:07 51°13.636 2°56.018 127.1 0.2 339 -999
2012-02-13 08:06:12 51°13.636 2°56.018 127.1 0.2 320 -999
2012-02-13 08:06:17 51°13.636 2°56.018 127.1 -999 63 -999
2012-02-13 08:06:22 51°13.636 2°56.019 127.1 0.1 54 -999
2012-02-13 08:06:27 51°13.636 2°56.019 127.1 0.1 44 -999
2012-02-13 08:06:33 51°13.636 2°56.018 127.1 -999 328 -999
2012-02-13 08:06:37 51°13.636 2°56.018 127.1 -999 243 -999
2012-02-13 08:06:42 51°13.636 2°56.018 127.1 0.1 333 -999
2012-02-13 08:06:47 51°13.636 2°56.019 127 -999 143 -999
2012-02-13 08:06:52 51°13.635 2°56.019 127 0.1 133 -999
2012-02-13 08:06:57 51°13.636 2°56.019 127 0.1 20 -999
2012-02-13 08:07:02 51°13.636 2°56.018 126.9 0.1 310 -999
2012-02-13 08:07:07 51°13.636 2°56.018 126.9 0.1 313 -999
2012-02-13 08:07:12 51°13.636 2°56.018 126.9 0.1 311 -999
2012-02-13 08:07:17 51°13.636 2°56.019 126.8 0.1 342 -999
2012-02-13 08:07:22 51°13.636 2°56.019 126.8 0.2 148 -999
2012-02-13 08:07:27 51°13.636 2°56.019 126.7 0.2 132 -999
2012-02-13 08:07:32 51°13.636 2°56.018 126.6 -999 293 -999
2012-02-13 08:07:37 51°13.636 2°56.018 126.5 0.2 315 -999
2012-02-13 08:07:42 51°13.636 2°56.019 126.4 0.1 136 -999
2012-02-13 08:07:47 51°13.636 2°56.019 126.4 0.1 126 -999
2012-02-13 08:07:52 51°13.636 2°56.018 126.3 -999 243 -999
2012-02-13 08:07:57 51°13.636 2°56.019 126.3 0.1 215 -999
2012-02-13 08:08:02 51°13.636 2°56.019 126.3 -999 41 -999
2012-02-13 08:08:07 51°13.636 2°56.019 126.3 0.1 352 -999
2012-02-13 08:08:12 51°13.636 2°56.019 126.3 -999 311 -999
2012-02-13 08:08:17 51°13.636 2°56.019 126.3 -999 228 -999
2012-02-13 08:08:22 51°13.636 2°56.019 126.4 0.1 352 -999
2012-02-13 08:08:27 51°13.636 2°56.019 126.4 0.1 76 -999
2012-02-13 08:08:32 51°13.636 2°56.019 126.5 0.2 150 -999
2012-02-13 08:08:37 51°13.636 2°56.019 126.7 -999 60 -999
2012-02-13 08:08:42 51°13.636 2°56.018 126.8 0.2 302 -999
2012-02-13 08:08:47 51°13.636 2°56.018 126.9 0.1 283 -999
2012-02-13 08:08:52 51°13.636 2°56.018 127 0.1 336 -999
2012-02-13 08:08:57 51°13.636 2°56.018 127.1 0.1 354 -999
2012-02-13 08:09:02 51°13.636 2°56.018 127.1 0.2 283 -999
2012-02-13 08:09:07 51°13.636 2°56.018 127.1 0.2 257 -999
2012-02-13 08:09:12 51°13.636 2°56.019 127.1 0.1 163 -999
2012-02-13 08:09:17 51°13.636 2°56.019 127.1 0.1 80 -999
2012-02-13 08:09:22 51°13.636 2°56.019 127.1 0.1 162 -999
2012-02-13 08:09:27 51°13.636 2°56.019 127.1 0.1 222 -999
2012-02-13 08:09:32 51°13.637 2°56.019 127.1 0.2 19 -999
2012-02-13 08:09:37 51°13.637 2°56.019 127.1 0.2 19 -999
2012-02-13 08:09:42 51°13.636 2°56.019 127 0.1 275 -999
2012-02-13 08:09:47 51°13.636 2°56.019 127 0.3 183 -999
2012-02-13 08:09:52 51°13.637 2°56.02 126.9 0.1 125 -999
2012-02-13 08:09:57 51°13.637 2°56.019 126.9 0.3 347 -999
2012-02-13 08:10:02 51°13.637 2°56.019 126.9 -999 343 -999
2012-02-13 08:10:07 51°13.637 2°56.019 126.9 -999 35 -999
2012-02-13 08:10:12 51°13.637 2°56.019 126.8 0.1 357 -999
2012-02-13 08:10:17 51°13.637 2°56.019 126.8 0.1 3 -999
2012-02-13 08:10:21 51°13.637 2°56.018 126.8 0.2 333 -999
2012-02-13 08:10:27 51°13.636 2°56.019 126.8 0.1 155 -999
2012-02-13 08:10:32 51°13.636 2°56.02 126.8 0.2 125 -999
2012-02-13 08:10:37 51°13.637 2°56.02 126.8 0.2 77 -999
2012-02-13 08:10:41 51°13.636 2°56.02 126.9 0.2 121 -999
2012-02-13 08:10:47 51°13.636 2°56.019 126.9 0.2 153 -999
2012-02-13 08:10:52 51°13.636 2°56.019 127 0.2 122 -999
2012-02-13 08:10:58 51°13.637 2°56.018 127.1 0.1 21 -999
2012-02-13 08:11:02 51°13.636 2°56.018 127.1 0.1 335 -999
2012-02-13 08:11:07 51°13.637 2°56.018 127.1 0.1 6 -999
2012-02-13 08:11:12 51°13.636 2°56.018 127.1 -999 284 -999
2012-02-13 08:11:18 51°13.636 2°56.019 127.1 0.1 139 -999
2012-02-13 08:11:22 51°13.636 2°56.019 127.1 0.2 117 -999
2012-02-13 08:11:28 51°13.637 2°56.018 127.1 0.1 150 -999
2012-02-13 08:11:32 51°13.636 2°56.018 127.1 0.2 203 -999
2012-02-13 08:11:38 51°13.637 2°56.018 127.1 0.1 197 -999
2012-02-13 08:11:42 51°13.637 2°56.018 127.1 0.3 358 -999
2012-02-13 08:11:48 51°13.637 2°56.018 127.1 0.1 9 -999
2012-02-13 08:11:53 51°13.637 2°56.018 127.1 0.2 323 -999
2012-02-13 08:11:58 51°13.636 2°56.018 127.1 0.1 197 -999
2012-02-13 08:12:02 51°13.636 2°56.019 127.1 0.2 157 -999
2012-02-13 08:12:08 51°13.636 2°56.019 127.1 0.1 144 -999
2012-02-13 08:12:12 51°13.637 2°56.019 127 -999 25 -999
2012-02-13 08:12:17 51°13.636 2°56.019 127 0.1 198 -999
2012-02-13 08:12:22 51°13.636 2°56.019 127 0.1 195 -999
2012-02-13 08:12:27 51°13.637 2°56.019 127 -999 330 -999
2012-02-13 08:12:32 51°13.637 2°56.019 126.9 0.1 115 -999
2012-02-13 08:12:37 51°13.637 2°56.019 126.9 0.1 112 -999
2012-02-13 08:12:42 51°13.637 2°56.019 126.9 0.1 116 -999
2012-02-13 08:12:48 51°13.637 2°56.019 126.9 -999 61 -999
2012-02-13 08:12:52 51°13.637 2°56.019 126.8 -999 133 -999
2012-02-13 08:12:57 51°13.636 2°56.019 126.8 -999 228 -999
2012-02-13 08:13:02 51°13.636 2°56.019 126.8 0.1 205 -999
2012-02-13 08:13:07 51°13.636 2°56.019 126.8 0.1 210 -999
2012-02-13 08:13:12 51°13.636 2°56.019 126.8 0.1 204 -999
2012-02-13 08:13:17 51°13.636 2°56.019 126.8 -999 150 -999
2012-02-13 08:13:22 51°13.636 2°56.019 126.7 -999 61 -999
2012-02-13 08:13:27 51°13.637 2°56.019 126.6 -999 158 -999
2012-02-13 08:13:33 51°13.637 2°56.019 126.6 0.1 328 -999
2012-02-13 08:13:37 51°13.636 2°56.019 126.6 0.1 157 8.3
2012-02-13 08:13:42 51°13.637 2°56.019 126.6 -999 251 -999
2012-02-13 08:13:47 51°13.637 2°56.018 126.5 0.1 352 -999
2012-02-13 08:13:52 51°13.637 2°56.019 126.5 -999 43 -999
2012-02-13 08:13:57 51°13.636 2°56.018 126.5 0.1 281 -999
2012-02-13 08:14:02 51°13.636 2°56.018 126.5 0.1 215 -999
2012-02-13 08:14:07 51°13.636 2°56.019 126.6 0.1 146 -999
2012-02-13 08:14:12 51°13.636 2°56.018 126.8 -999 49 -999
2012-02-13 08:14:17 51°13.636 2°56.019 126.8 0.2 171 -999
2012-02-13 08:14:22 51°13.636 2°56.019 126.9 0.2 152 -999
2012-02-13 08:14:27 51°13.636 2°56.018 126.9 0.1 338 -999
2012-02-13 08:14:32 51°13.636 2°56.018 127 0.1 195 -999
2012-02-13 08:14:37 51°13.636 2°56.018 127 -999 175 -999
2012-02-13 08:14:42 51°13.636 2°56.018 127 0.1 286 -999
2012-02-13 08:14:47 51°13.636 2°56.018 127.1 0.1 277 -999
2012-02-13 08:14:52 51°13.636 2°56.017 127.1 0.1 294 -999
2012-02-13 08:14:57 51°13.636 2°56.018 127.1 -999 171 -999
2012-02-13 08:15:02 51°13.636 2°56.018 127.1 -999 82 -999
2012-02-13 08:15:07 51°13.636 2°56.018 127.2 -999 246 -999
2012-02-13 08:15:12 51°13.636 2°56.018 127.2 0.1 204 -999
2012-02-13 08:15:17 51°13.636 2°56.018 127.2 0.1 276 -999
2012-02-13 08:15:22 51°13.636 2°56.019 127.2 0.1 132 -999
2012-02-13 08:15:27 51°13.636 2°56.019 127.2 0.2 137 -999
2012-02-13 08:15:32 51°13.636 2°56.018 127.2 -999 185 -999
2012-02-13 08:15:37 51°13.636 2°56.019 127.2 0.2 122 -999
2012-02-13 08:15:42 51°13.636 2°56.019 127.2 0.1 118 -999
2012-02-13 08:15:47 51°13.636 2°56.019 127.2 0.1 174 -999
2012-02-13 08:15:52 51°13.636 2°56.019 127.2 -999 93 -999
2012-02-13 08:15:57 51°13.637 2°56.019 127.2 0.1 348 -999
2012-02-13 08:16:02 51°13.636 2°56.018 127.2 -999 331 -999
2012-02-13 08:16:07 51°13.637 2°56.018 127.2 0.2 330 -999
2012-02-13 08:16:12 51°13.637 2°56.019 127.1 0.1 18 -999
2012-02-13 08:16:17 51°13.637 2°56.018 127.1 0.2 348 -999
2012-02-13 08:16:22 51°13.636 2°56.018 127.1 0.1 320 -999
2012-02-13 08:16:27 51°13.636 2°56.019 127.1 0.1 71 -999
2012-02-13 08:16:32 51°13.636 2°56.019 127.1 0.2 168 -999
2012-02-13 08:16:37 51°13.636 2°56.019 127.1 0.3 179 -999
2012-02-13 08:16:42 51°13.636 2°56.018 127.1 0.2 206 -999
2012-02-13 08:16:47 51°13.636 2°56.018 127.1 0.1 232 -999
2012-02-13 08:16:52 51°13.636 2°56.018 127.1 0.1 221 -999
2012-02-13 08:16:57 51°13.636 2°56.018 127.1 0.1 227 -999
2012-02-13 08:17:02 51°13.636 2°56.018 127.1 0.1 301 -999
2012-02-13 08:17:07 51°13.636 2°56.018 127.1 0.1 229 -999
2012-02-13 08:17:12 51°13.636 2°56.019 127.1 0.1 142 -999
2012-02-13 08:17:17 51°13.636 2°56.019 127.1 0.1 141 -999
2012-02-13 08:17:22 51°13.636 2°56.019 127.1 0.1 42 -999
2012-02-13 08:17:27 51°13.636 2°56.018 127.1 0.1 319 -999
2012-02-13 08:17:32 51°13.636 2°56.018 127.1 0.1 312 -999
2012-02-13 08:17:37 51°13.636 2°56.018 127.1 -999 194 -999
2012-02-13 08:17:42 51°13.636 2°56.019 127.1 0.1 132 -999
2012-02-13 08:17:46 51°13.636 2°56.019 127 0.1 146 -999
2012-02-13 08:17:52 51°13.636 2°56.018 126.9 -999 125 -999
2012-02-13 08:17:58 51°13.636 2°56.018 126.9 -999 87 -999
2012-02-13 08:18:02 51°13.636 2°56.018 126.9 -999 315 -999
2012-02-13 08:18:07 51°13.636 2°56.018 126.9 -999 199 -999
2012-02-13 08:18:12 51°13.636 2°56.018 126.9 -999 57 -999
2012-02-13 08:18:17 51°13.636 2°56.018 126.9 0.1 291 -999
2012-02-13 08:18:22 51°13.636 2°56.019 126.9 0.2 162 -999
2012-02-13 08:18:26 51°13.636 2°56.019 126.9 0.2 71 -999
2012-02-13 08:18:31 51°13.636 2°56.018 126.9 0.1 318 -999
2012-02-13 08:18:38 51°13.636 2°56.018 126.9 0.1 192 -999
2012-02-13 08:18:43 51°13.636 2°56.018 126.9 0.2 122 -999
2012-02-13 08:18:47 51°13.636 2°56.018 126.9 0.1 346 -999
2012-02-13 08:18:52 51°13.636 2°56.018 126.9 0.1 231 -999
2012-02-13 08:18:57 51°13.636 2°56.017 126.9 -999 226 -999
2012-02-13 08:19:02 51°13.636 2°56.017 126.9 0.2 344 -999
2012-02-13 08:19:07 51°13.636 2°56.017 126.9 0.2 325 -999
2012-02-13 08:19:12 51°13.636 2°56.018 126.9 -999 189 -999
2012-02-13 08:19:18 51°13.636 2°56.018 126.9 -999 143 -999
2012-02-13 08:19:23 51°13.636 2°56.018 126.9 -999 327 -999
2012-02-13 08:19:27 51°13.636 2°56.018 126.9 -999 93 -999
2012-02-13 08:19:32 51°13.636 2°56.019 126.9 0.1 96 -999
2012-02-13 08:19:38 51°13.636 2°56.019 126.9 -999 12 -999
2012-02-13 08:19:42 51°13.636 2°56.018 126.9 -999 281 -999
2012-02-13 08:19:47 51°13.636 2°56.018 126.9 0.1 341 -999
2012-02-13 08:19:52 51°13.636 2°56.019 126.9 0.1 146 -999
2012-02-13 08:19:58 51°13.636 2°56.019 126.9 0.1 138 -999
2012-02-13 08:20:03 51°13.636 2°56.019 126.8 0.1 167 -999
2012-02-13 08:20:07 51°13.636 2°56.018 126.7 0.1 190 -999
2012-02-13 08:20:12 51°13.636 2°56.019 126.7 0.1 170 -999
2012-02-13 08:20:18 51°13.636 2°56.018 126.6 -999 60 -999
2012-02-13 08:20:23 51°13.636 2°56.019 126.6 0.1 118 -999
2012-02-13 08:20:27 51°13.636 2°56.018 126.6 0.1 176 -999
2012-02-13 08:20:32 51°13.636 2°56.018 126.6 0.2 310 -999
2012-02-13 08:20:38 51°13.636 2°56.019 126.6 -999 149 -999
2012-02-13 08:20:43 51°13.636 2°56.019 126.6 0.1 147 -999
2012-02-13 08:20:47 51°13.636 2°56.019 126.6 0.1 150 -999
2012-02-13 08:20:52 51°13.636 2°56.019 126.7 0.1 123 -999
2012-02-13 08:20:58 51°13.636 2°56.019 126.7 -999 165 -999
2012-02-13 08:21:03 51°13.636 2°56.018 126.6 -999 177 -999
2012-02-13 08:21:07 51°13.636 2°56.019 126.6 -999 144 -999
2012-02-13 08:21:12 51°13.636 2°56.018 126.6 0.1 179 -999
2012-02-13 08:21:17 51°13.636 2°56.018 126.6 -999 7 -999
2012-02-13 08:21:23 51°13.636 2°56.018 126.6 -999 31 -999
2012-02-13 08:21:27 51°13.636 2°56.018 126.6 -999 355 -999
2012-02-13 08:21:32 51°13.636 2°56.018 126.6 -999 11 -999
2012-02-13 08:21:38 51°13.636 2°56.019 126.6 0.1 79 -999
2012-02-13 08:21:42 51°13.636 2°56.018 126.6 -999 54 -999
2012-02-13 08:21:47 51°13.636 2°56.019 126.6 -999 86 -999
2012-02-13 08:21:52 51°13.636 2°56.019 126.6 0.1 109 -999
2012-02-13 08:21:57 51°13.636 2°56.019 126.6 0.1 152 -999
2012-02-13 08:22:02 51°13.636 2°56.018 126.6 0.1 342 -999
2012-02-13 08:22:07 51°13.636 2°56.018 126.6 0.1 338 -999
2012-02-13 08:22:12 51°13.636 2°56.019 126.6 0.1 355 -999
2012-02-13 08:22:18 51°13.636 2°56.019 126.5 0.1 167 -999
2012-02-13 08:22:22 51°13.636 2°56.019 126.5 0.1 146 -999
2012-02-13 08:22:27 51°13.636 2°56.019 126.5 -999 52 -999
2012-02-13 08:22:32 51°13.636 2°56.019 126.4 0.1 328 -999
2012-02-13 08:22:38 51°13.636 2°56.019 126.4 0.1 345 -999
2012-02-13 08:22:42 51°13.636 2°56.019 126.4 0.1 14 -999
2012-02-13 08:22:47 51°13.636 2°56.019 126.4 -999 32 -999
2012-02-13 08:22:52 51°13.636 2°56.019 126.4 -999 193 -999
2012-02-13 08:22:58 51°13.636 2°56.019 126.4 -999 208 -999
2012-02-13 08:23:02 51°13.636 2°56.019 126.4 -999 359 -999
2012-02-13 08:23:07 51°13.636 2°56.019 126.4 -999 48 -999
2012-02-13 08:23:12 51°13.636 2°56.019 126.4 0.1 146 -999
2012-02-13 08:23:17 51°13.636 2°56.019 126.4 0.1 124 -999
2012-02-13 08:23:22 51°13.636 2°56.019 126.4 -999 165 -999
2012-02-13 08:23:27 51°13.636 2°56.019 126.4 0.1 144 -999
2012-02-13 08:23:32 51°13.636 2°56.019 126.4 0.1 157 -999
2012-02-13 08:23:37 51°13.636 2°56.02 126.4 0.1 131 -999
2012-02-13 08:23:42 51°13.636 2°56.019 126.4 -999 146 -999
2012-02-13 08:23:47 51°13.636 2°56.019 126.4 -999 323 -999
2012-02-13 08:23:52 51°13.636 2°56.019 126.4 -999 200 -999
2012-02-13 08:23:57 51°13.636 2°56.02 126.4 -999 89 -999
2012-02-13 08:24:02 51°13.636 2°56.02 126.5 -999 127 -999
2012-02-13 08:24:07 51°13.636 2°56.019 126.6 -999 -999 -999
2012-02-13 08:24:12 51°13.636 2°56.019 126.7 -999 22 -999
2012-02-13 08:24:17 51°13.636 2°56.019 126.8 0.1 21 -999
2012-02-13 08:24:22 51°13.636 2°56.019 126.9 0.1 321 -999
2012-02-13 08:24:27 51°13.636 2°56.019 127.1 0.1 312 -999
2012-02-13 08:24:32 51°13.636 2°56.019 127.1 0.1 185 -999
2012-02-13 08:24:37 51°13.636 2°56.019 127.1 0.1 17 -999
2012-02-13 08:24:42 51°13.636 2°56.019 127.1 0.1 7 -999
2012-02-13 08:24:47 51°13.636 2°56.019 127.1 0.1 31 -999
2012-02-13 08:24:52 51°13.636 2°56.019 127.1 -999 22 -999
2012-02-13 08:24:57 51°13.636 2°56.019 127.1 -999 242 -999
2012-02-13 08:25:02 51°13.636 2°56.019 127 0.1 340 -999
2012-02-13 08:25:07 51°13.636 2°56.019 126.9 0.1 322 -999
2012-02-13 08:25:12 51°13.636 2°56.019 126.9 0.1 304 -999
2012-02-13 08:25:17 51°13.636 2°56.019 126.8 0.1 152 -999
2012-02-13 08:25:22 51°13.636 2°56.019 126.8 0.1 129 -999
2012-02-13 08:25:27 51°13.636 2°56.019 126.8 -999 167 -999
2012-02-13 08:25:32 51°13.636 2°56.019 126.9 -999 244 -999
2012-02-13 08:25:37 51°13.636 2°56.019 126.8 -999 38 -999
2012-02-13 08:25:42 51°13.635 2°56.019 126.8 -999 112 -999
2012-02-13 08:25:47 51°13.635 2°56.019 126.8 -999 141 -999
2012-02-13 08:25:52 51°13.635 2°56.019 126.8 0.1 155 -999
2012-02-13 08:25:57 51°13.635 2°56.019 126.8 -999 105 -999
2012-02-13 08:26:02 51°13.635 2°56.019 126.8 -999 244 -999
2012-02-13 08:26:07 51°13.635 2°56.019 126.8 -999 150 -999
2012-02-13 08:26:12 51°13.635 2°56.019 126.8 -999 166 -999
2012-02-13 08:26:17 51°13.635 2°56.019 126.8 -999 189 -999
2012-02-13 08:26:22 51°13.635 2°56.019 126.8 -999 4 -999
2012-02-13 08:26:27 51°13.635 2°56.02 126.8 0.1 171 -999
2012-02-13 08:26:32 51°13.635 2°56.019 126.8 0.1 178 -999
2012-02-13 08:26:37 51°13.635 2°56.019 126.8 -999 296 -999
2012-02-13 08:26:42 51°13.635 2°56.019 126.8 -999 317 -999
2012-02-13 08:26:47 51°13.635 2°56.019 126.8 -999 217 -999
2012-02-13 08:26:52 51°13.635 2°56.019 126.8 -999 184 -999
2012-02-13 08:26:57 51°13.635 2°56.02 126.8 0.1 144 -999
2012-02-13 08:27:02 51°13.635 2°56.02 126.8 0.1 129 -999
2012-02-13 08:27:07 51°13.635 2°56.019 126.7 0.1 166 -999
2012-02-13 08:27:12 51°13.635 2°56.019 126.7 -999 327 -999
2012-02-13 08:27:17 51°13.635 2°56.019 126.6 -999 9 -999
2012-02-13 08:27:22 51°13.635 2°56.019 126.6 -999 24 -999
2012-02-13 08:27:27 51°13.635 2°56.019 126.5 -999 144 -999
2012-02-13 08:27:32 51°13.635 2°56.019 126.5 -999 182 -999
2012-02-13 08:27:37 51°13.635 2°56.019 126.5 -999 -999 -999
2012-02-13 08:27:42 51°13.635 2°56.019 126.5 -999 23 -999
2012-02-13 08:27:47 51°13.635 2°56.019 126.5 0.1 148 -999
2012-02-13 08:27:52 51°13.635 2°56.019 126.5 0.1 174 -999
2012-02-13 08:27:57 51°13.635 2°56.019 126.5 -999 155 -999
2012-02-13 08:28:02 51°13.635 2°56.019 126.5 0.1 145 -999
2012-02-13 08:28:07 51°13.635 2°56.019 126.5 0.1 174 -999
2012-02-13 08:28:12 51°13.635 2°56.019 126.5 -999 149 -999
2012-02-13 08:28:17 51°13.635 2°56.019 126.5 0.1 150 -999
2012-02-13 08:28:22 51°13.635 2°56.019 126.5 0.1 120 -999
2012-02-13 08:28:27 51°13.635 2°56.019 126.6 0.1 133 -999
2012-02-13 08:28:32 51°13.635 2°56.019 126.6 0.2 148 -999
2012-02-13 08:28:37 51°13.635 2°56.019 126.6 0.2 161 -999
2012-02-13 08:28:42 51°13.635 2°56.019 126.6 -999 176 -999
2012-02-13 08:28:47 51°13.636 2°56.019 126.6 0.1 1 -999
2012-02-13 08:28:52 51°13.636 2°56.018 126.6 0.1 338 -999
2012-02-13 08:28:57 51°13.635 2°56.019 126.6 0.2 185 -999
2012-02-13 08:29:02 51°13.635 2°56.019 126.6 0.2 180 -999
2012-02-13 08:29:07 51°13.636 2°56.019 126.6 -999 184 -999
2012-02-13 08:29:12 51°13.636 2°56.019 126.6 -999 48 -999
2012-02-13 08:29:17 51°13.636 2°56.019 126.6 0.1 67 -999
2012-02-13 08:29:22 51°13.636 2°56.019 126.7 0.1 95 -999
2012-02-13 08:29:27 51°13.636 2°56.019 126.8 -999 153 -999
2012-02-13 08:29:32 51°13.636 2°56.018 126.8 -999 175 -999
2012-02-13 08:29:37 51°13.636 2°56.018 126.8 -999 86 -999
2012-02-13 08:29:42 51°13.636 2°56.018 126.8 0.2 348 -999
2012-02-13 08:29:47 51°13.636 2°56.018 126.8 0.1 295 -999
2012-02-13 08:29:52 51°13.636 2°56.018 126.8 -999 281 -999
2012-02-13 08:29:57 51°13.636 2°56.018 126.8 -999 180 -999
2012-02-13 08:30:02 51°13.636 2°56.018 126.8 -999 55 -999
2012-02-13 08:30:07 51°13.636 2°56.018 126.7 0.1 41 -999
2012-02-13 08:30:12 51°13.636 2°56.018 126.7 0.2 11 -999
2012-02-13 08:30:17 51°13.636 2°56.018 126.7 0.1 337 -999
2012-02-13 08:30:22 51°13.636 2°56.018 126.7 0.1 205 -999
2012-02-13 08:30:27 51°13.636 2°56.018 126.7 0.1 307 -999
2012-02-13 08:30:32 51°13.636 2°56.018 126.7 0.1 26 -999
2012-02-13 08:30:37 51°13.636 2°56.018 126.7 0.1 22 -999
2012-02-13 08:30:42 51°13.636 2°56.018 126.7 0.1 19 -999
2012-02-13 08:30:47 51°13.636 2°56.018 126.7 0.1 337 -999
2012-02-13 08:30:52 51°13.636 2°56.018 126.7 0.1 328 -999
2012-02-13 08:30:57 51°13.636 2°56.018 126.7 0.1 138 -999
2012-02-13 08:31:02 51°13.636 2°56.018 126.7 0.1 145 -999
2012-02-13 08:31:07 51°13.636 2°56.018 126.6 0.1 178 -999
2012-02-13 08:31:12 51°13.636 2°56.018 126.6 0.2 167 -999
2012-02-13 08:31:17 51°13.636 2°56.019 126.6 0.3 152 -999
2012-02-13 08:31:22 51°13.636 2°56.019 126.6 0.3 145 -999
2012-02-13 08:31:27 51°13.636 2°56.019 126.6 0.2 131 -999
2012-02-13 08:31:32 51°13.636 2°56.018 126.8 0.1 136 -999
2012-02-13 08:31:37 51°13.636 2°56.018 126.8 -999 218 -999
2012-02-13 08:31:42 51°13.636 2°56.018 126.8 0.1 356 -999
2012-02-13 08:31:47 51°13.636 2°56.018 126.8 0.1 271 -999
2012-02-13 08:31:52 51°13.636 2°56.018 126.8 -999 115 -999
2012-02-13 08:31:57 51°13.636 2°56.018 126.9 0.1 345 -999
2012-02-13 08:32:02 51°13.636 2°56.018 127 0.1 317 -999
2012-02-13 08:32:07 51°13.636 2°56.018 127.1 0.1 187 -999
2012-02-13 08:32:12 51°13.636 2°56.018 127.1 0.2 166 -999
2012-02-13 08:32:17 51°13.636 2°56.018 127.1 0.1 175 -999
2012-02-13 08:32:22 51°13.636 2°56.018 127.1 0.1 128 -999
2012-02-13 08:32:27 51°13.636 2°56.018 127.1 0.1 103 -999
2012-02-13 08:32:32 51°13.636 2°56.018 127.1 -999 114 -999
2012-02-13 08:32:37 51°13.636 2°56.017 127 0.2 343 -999
2012-02-13 08:32:42 51°13.636 2°56.017 127 0.1 358 -999
2012-02-13 08:32:47 51°13.636 2°56.017 127 -999 264 -999
2012-02-13 08:32:52 51°13.636 2°56.017 127 0.1 236 -999
2012-02-13 08:32:57 51°13.636 2°56.018 127 0.1 162 -999
2012-02-13 08:33:02 51°13.636 2°56.017 127 0.1 186 -999
2012-02-13 08:33:07 51°13.636 2°56.017 127 -999 116 -999
2012-02-13 08:33:12 51°13.636 2°56.018 127 0.1 99 -999
2012-02-13 08:33:17 51°13.636 2°56.017 127 0.1 71 -999
2012-02-13 08:33:22 51°13.636 2°56.017 127 0.1 339 -999
2012-02-13 08:33:27 51°13.636 2°56.017 127 0.1 4 -999
2012-02-13 08:33:32 51°13.637 2°56.017 127 0.2 6 -999
2012-02-13 08:33:37 51°13.636 2°56.017 127 0.1 335 -999
2012-02-13 08:33:42 51°13.636 2°56.017 127 0.1 297 -999
2012-02-13 08:33:47 51°13.636 2°56.017 127 0.1 306 -999
2012-02-13 08:33:52 51°13.636 2°56.017 127 0.1 294 -999
2012-02-13 08:33:57 51°13.636 2°56.017 127 0.1 141 -999
2012-02-13 08:34:02 51°13.637 2°56.017 127 0.2 359 -999
2012-02-13 08:34:07 51°13.636 2°56.017 127 -999 313 -999
2012-02-13 08:34:12 51°13.636 2°56.017 127 0.1 351 -999
2012-02-13 08:34:17 51°13.636 2°56.017 127 0.1 228 -999
2012-02-13 08:34:22 51°13.636 2°56.018 126.9 0.1 164 -999
2012-02-13 08:34:27 51°13.636 2°56.018 126.9 0.2 171 -999
2012-02-13 08:34:32 51°13.636 2°56.018 126.9 0.1 169 -999
2012-02-13 08:34:37 51°13.636 2°56.018 126.9 0.1 189 -999
2012-02-13 08:34:42 51°13.636 2°56.018 126.9 0.1 84 -999
2012-02-13 08:34:47 51°13.636 2°56.018 126.9 0.1 77 -999
2012-02-13 08:34:52 51°13.636 2°56.018 126.9 -999 42 -999
2012-02-13 08:34:57 51°13.636 2°56.018 126.9 -999 50 -999
2012-02-13 08:35:02 51°13.636 2°56.018 126.9 -999 116 -999
2012-02-13 08:35:07 51°13.636 2°56.018 126.9 0.1 74 -999
2012-02-13 08:35:12 51°13.637 2°56.018 126.9 -999 58 -999
2012-02-13 08:35:17 51°13.636 2°56.018 126.9 0.1 140 -999
2012-02-13 08:35:22 51°13.636 2°56.018 126.9 -999 44 -999
2012-02-13 08:35:27 51°13.636 2°56.018 127 0.1 141 -999
2012-02-13 08:35:32 51°13.636 2°56.018 127 0.1 128 -999
2012-02-13 08:35:37 51°13.636 2°56.018 127 0.1 104 -999
2012-02-13 08:35:42 51°13.637 2°56.018 127 0.1 9 -999
2012-02-13 08:35:47 51°13.636 2°56.018 127 0.1 203 -999
2012-02-13 08:35:52 51°13.636 2°56.018 126.9 0.1 143 -999
2012-02-13 08:35:57 51°13.637 2°56.018 126.9 0.1 -999 -999
2012-02-13 08:36:02 51°13.637 2°56.018 126.9 -999 95 -999
2012-02-13 08:36:07 51°13.637 2°56.018 126.9 0.1 62 -999
2012-02-13 08:36:12 51°13.636 2°56.018 127 -999 334 -999
2012-02-13 08:36:17 51°13.636 2°56.018 127 -999 344 -999
2012-02-13 08:36:22 51°13.636 2°56.018 127 -999 86 -999
2012-02-13 08:36:27 51°13.636 2°56.018 127 0.1 143 -999
2012-02-13 08:36:32 51°13.636 2°56.018 127 0.1 130 -999
2012-02-13 08:36:37 51°13.636 2°56.018 127 -999 316 -999
2012-02-13 08:36:42 51°13.636 2°56.018 127 0.1 202 -999
2012-02-13 08:36:47 51°13.636 2°56.018 127 0.2 180 -999
2012-02-13 08:36:52 51°13.636 2°56.018 127 0.1 168 -999
2012-02-13 08:36:57 51°13.636 2°56.018 127 -999 139 -999
2012-02-13 08:37:02 51°13.636 2°56.018 126.9 -999 60 -999
2012-02-13 08:37:07 51°13.636 2°56.018 126.9 0.1 113 -999
2012-02-13 08:37:12 51°13.636 2°56.018 126.9 0.1 167 -999
2012-02-13 08:37:17 51°13.636 2°56.018 126.9 -999 234 -999
2012-02-13 08:37:22 51°13.636 2°56.018 126.9 -999 210 -999
2012-02-13 08:37:27 51°13.636 2°56.018 126.9 0.2 329 -999
2012-02-13 08:37:32 51°13.636 2°56.018 126.9 0.1 251 -999
2012-02-13 08:37:37 51°13.636 2°56.018 126.9 0.1 204 -999
2012-02-13 08:37:42 51°13.636 2°56.018 126.9 0.1 331 -999
2012-02-13 08:37:47 51°13.636 2°56.018 126.9 0.1 275 -999
2012-02-13 08:37:52 51°13.636 2°56.018 126.9 0.1 166 -999
2012-02-13 08:37:57 51°13.636 2°56.018 126.9 0.1 82 -999
2012-02-13 08:38:02 51°13.636 2°56.018 126.9 0.1 121 -999
2012-02-13 08:38:07 51°13.636 2°56.018 126.9 -999 335 -999
2012-02-13 08:38:12 51°13.636 2°56.018 126.9 -999 226 -999
2012-02-13 08:38:17 51°13.636 2°56.018 126.9 0.1 101 -999
2012-02-13 08:38:22 51°13.636 2°56.018 126.9 0.2 346 -999
2012-02-13 08:38:27 51°13.636 2°56.018 126.9 0.3 183 -999
2012-02-13 08:38:32 51°13.636 2°56.018 126.9 0.1 139 -999
2012-02-13 08:38:37 51°13.636 2°56.018 127 -999 304 -999
2012-02-13 08:38:42 51°13.637 2°56.018 127 0.1 334 -999
2012-02-13 08:38:47 51°13.637 2°56.018 126.9 0.2 331 -999
2012-02-13 08:38:51 51°13.637 2°56.018 126.9 0.1 34 -999
2012-02-13 08:38:57 51°13.636 2°56.019 126.9 0.2 119 -999
2012-02-13 08:39:02 51°13.636 2°56.019 126.9 0.2 125 -999
2012-02-13 08:39:07 51°13.637 2°56.018 126.9 0.2 4 -999
2012-02-13 08:39:12 51°13.637 2°56.018 126.9 0.1 326 -999
2012-02-13 08:39:17 51°13.636 2°56.018 126.9 -999 167 -999
2012-02-13 08:39:22 51°13.636 2°56.019 126.8 0.2 152 -999
2012-02-13 08:39:27 51°13.637 2°56.018 126.8 0.1 16 -999
2012-02-13 08:39:32 51°13.636 2°56.018 126.8 0.1 192 -999
2012-02-13 08:39:37 51°13.636 2°56.018 126.8 -999 299 -999
2012-02-13 08:39:42 51°13.637 2°56.018 126.8 0.1 357 -999
2012-02-13 08:39:47 51°13.637 2°56.018 126.8 0.1 359 -999
2012-02-13 08:39:52 51°13.637 2°56.018 126.8 -999 147 -999
2012-02-13 08:39:57 51°13.637 2°56.018 126.7 0.1 67 -999
2012-02-13 08:40:02 51°13.637 2°56.018 126.7 0.1 4 -999
2012-02-13 08:40:07 51°13.637 2°56.018 126.7 0.1 6 -999
2012-02-13 08:40:12 51°13.637 2°56.018 126.7 0.2 359 -999
2012-02-13 08:40:17 51°13.637 2°56.018 126.7 0.1 359 -999
2012-02-13 08:40:22 51°13.637 2°56.018 126.7 0.1 333 -999
2012-02-13 08:40:27 51°13.637 2°56.018 126.7 0.1 210 -999
2012-02-13 08:40:32 51°13.637 2°56.018 126.7 -999 221 -999
2012-02-13 08:40:37 51°13.637 2°56.018 126.7 0.2 334 -999
2012-02-13 08:40:42 51°13.637 2°56.018 126.7 0.1 296 -999
2012-02-13 08:40:47 51°13.636 2°56.018 126.7 -999 272 -999
2012-02-13 08:40:52 51°13.636 2°56.018 126.7 0.1 316 -999
2012-02-13 08:40:58 51°13.636 2°56.019 126.7 0.1 156 -999
2012-02-13 08:41:02 51°13.636 2°56.018 126.7 -999 316 -999
2012-02-13 08:41:07 51°13.636 2°56.018 126.7 0.1 300 -999
2012-02-13 08:41:12 51°13.635 2°56.018 126.7 0.1 193 -999
2012-02-13 08:41:17 51°13.636 2°56.019 126.7 -999 172 -999
2012-02-13 08:41:22 51°13.635 2°56.019 126.7 0.1 158 -999
2012-02-13 08:41:27 51°13.635 2°56.019 126.7 0.2 172 -999
2012-02-13 08:41:32 51°13.635 2°56.019 126.7 0.1 172 -999
2012-02-13 08:41:37 51°13.635 2°56.019 126.6 -999 299 -999
2012-02-13 08:41:43 51°13.635 2°56.019 126.6 -999 221 -999
2012-02-13 08:41:47 51°13.635 2°56.019 126.6 -999 60 -999
2012-02-13 08:41:52 51°13.636 2°56.019 126.6 0.1 2 -999
2012-02-13 08:41:57 51°13.635 2°56.019 126.6 -999 41 -999
2012-02-13 08:42:02 51°13.635 2°56.019 126.6 0.1 184 -999
2012-02-13 08:42:07 51°13.635 2°56.019 126.6 0.1 171 -999
2012-02-13 08:42:12 51°13.635 2°56.019 126.6 0.1 168 -999
2012-02-13 08:42:17 51°13.635 2°56.019 126.6 -999 68 -999
2012-02-13 08:42:22 51°13.635 2°56.019 126.6 -999 293 -999
2012-02-13 08:42:28 51°13.635 2°56.019 126.6 0.1 112 -999
2012-02-13 08:42:32 51°13.636 2°56.019 126.6 0.2 15 -999
2012-02-13 08:42:37 51°13.635 2°56.019 126.6 0.2 334 -999
2012-02-13 08:42:42 51°13.635 2°56.019 126.6 0.2 333 -999
2012-02-13 08:42:47 51°13.635 2°56.019 126.5 0.1 313 -999
2012-02-13 08:42:52 51°13.635 2°56.019 126.5 0.1 185 -999
2012-02-13 08:42:57 51°13.635 2°56.019 126.5 -999 188 -999
2012-02-13 08:43:02 51°13.635 2°56.019 126.5 0.2 162 -999
2012-02-13 08:43:07 51°13.635 2°56.02 126.5 0.2 127 -999
2012-02-13 08:43:12 51°13.635 2°56.019 126.5 0.1 54 -999
2012-02-13 08:43:17 51°13.635 2°56.019 126.5 0.2 -999 -999
2012-02-13 08:43:22 51°13.635 2°56.019 126.5 0.2 336 -999
2012-02-13 08:43:27 51°13.635 2°56.019 126.5 0.1 333 -999
2012-02-13 08:43:32 51°13.635 2°56.019 126.5 0.1 347 -999
2012-02-13 08:43:37 51°13.635 2°56.019 126.5 0.1 346 -999
2012-02-13 08:43:42 51°13.635 2°56.019 126.5 -999 287 -999
2012-02-13 08:43:47 51°13.635 2°56.019 126.5 0.1 201 -999
2012-02-13 08:43:52 51°13.635 2°56.019 126.5 0.1 178 -999
2012-02-13 08:43:57 51°13.635 2°56.019 126.5 0.1 353 -999
2012-02-13 08:44:02 51°13.635 2°56.019 126.5 0.1 159 -999
2012-02-13 08:44:07 51°13.635 2°56.019 126.5 0.2 141 -999
2012-02-13 08:44:12 51°13.636 2°56.019 126.5 0.1 354 -999
2012-02-13 08:44:17 51°13.635 2°56.019 126.5 0.1 261 -999
2012-02-13 08:44:22 51°13.636 2°56.019 126.5 0.1 345 -999
2012-02-13 08:44:27 51°13.635 2°56.019 126.5 0.2 194 -999
2012-02-13 08:44:32 51°13.635 2°56.019 126.5 0.2 177 -999
2012-02-13 08:44:37 51°13.636 2°56.019 126.5 0.1 41 -999
2012-02-13 08:44:42 51°13.635 2°56.019 126.5 0.1 189 -999
2012-02-13 08:44:47 51°13.635 2°56.019 126.5 0.1 159 -999
2012-02-13 08:44:52 51°13.635 2°56.019 126.5 0.2 145 -999
2012-02-13 08:44:57 51°13.636 2°56.019 126.5 0.1 100 -999
2012-02-13 08:45:02 51°13.636 2°56.019 126.5 0.2 327 -999
2012-02-13 08:45:07 51°13.635 2°56.019 126.5 0.2 168 -999
2012-02-13 08:45:13 51°13.635 2°56.019 126.5 -999 284 -999
2012-02-13 08:45:17 51°13.635 2°56.019 126.5 -999 177 -999
2012-02-13 08:45:22 51°13.635 2°56.019 126.4 0.1 109 -999
2012-02-13 08:45:27 51°13.635 2°56.019 126.4 0.1 346 -999
2012-02-13 08:45:32 51°13.635 2°56.018 126.4 0.1 299 -999
2012-02-13 08:45:37 51°13.635 2°56.019 126.4 0.1 136 -999
2012-02-13 08:45:42 51°13.635 2°56.019 126.4 0.1 108 -999
2012-02-13 08:45:47 51°13.635 2°56.019 126.4 -999 171 -999
2012-02-13 08:45:52 51°13.635 2°56.019 126.4 0.2 128 -999
2012-02-13 08:45:57 51°13.635 2°56.019 126.4 0.2 116 -999
2012-02-13 08:46:02 51°13.636 2°56.018 126.4 0.2 359 -999
2012-02-13 08:46:07 51°13.635 2°56.018 126.4 -999 291 -999
2012-02-13 08:46:12 51°13.635 2°56.019 126.4 0.2 159 -999
2012-02-13 08:46:17 51°13.635 2°56.018 126.4 -999 97 -999
2012-02-13 08:46:22 51°13.635 2°56.018 126.4 -999 84 -999
2012-02-13 08:46:27 51°13.635 2°56.018 126.4 0.1 338 -999
2012-02-13 08:46:32 51°13.635 2°56.018 126.4 0.2 329 -999
2012-02-13 08:46:37 51°13.635 2°56.018 126.5 0.1 269 -999
2012-02-13 08:46:42 51°13.635 2°56.019 126.5 0.1 154 -999
2012-02-13 08:46:48 51°13.635 2°56.019 126.5 0.1 118 -999
2012-02-13 08:46:52 51°13.635 2°56.018 126.5 0.1 347 -999
2012-02-13 08:46:57 51°13.635 2°56.018 126.5 0.1 320 -999
2012-02-13 08:47:02 51°13.635 2°56.018 126.5 -999 312 -999
2012-02-13 08:47:07 51°13.635 2°56.019 126.5 -999 90 -999
2012-02-13 08:47:12 51°13.635 2°56.018 126.4 -999 355 -999
2012-02-13 08:47:17 51°13.635 2°56.018 126.4 -999 115 -999
2012-02-13 08:47:22 51°13.635 2°56.018 126.4 0.1 340 -999
2012-02-13 08:47:27 51°13.635 2°56.018 126.4 0.1 315 -999
2012-02-13 08:47:32 51°13.635 2°56.019 126.4 0.1 147 -999
2012-02-13 08:47:37 51°13.635 2°56.019 126.4 0.2 148 -999
2012-02-13 08:47:41 51°13.635 2°56.019 126.4 0.1 128 -999
2012-02-13 08:47:47 51°13.635 2°56.019 126.4 0.1 12 -999
2012-02-13 08:47:52 51°13.635 2°56.019 126.4 0.1 9 -999
2012-02-13 08:47:58 51°13.635 2°56.019 126.4 0.1 262 -999
2012-02-13 08:48:02 51°13.634 2°56.019 126.4 0.2 169 -999
2012-02-13 08:48:07 51°13.635 2°56.019 126.4 0.1 143 -999
2012-02-13 08:48:12 51°13.635 2°56.019 126.4 0.1 16 -999
2012-02-13 08:48:18 51°13.635 2°56.019 126.4 -999 161 -999
2012-02-13 08:48:22 51°13.635 2°56.019 126.4 0.1 347 -999
2012-02-13 08:48:28 51°13.635 2°56.018 126.4 0.1 317 -999
2012-02-13 08:48:33 51°13.635 2°56.018 126.4 0.1 293 -999
2012-02-13 08:48:37 51°13.635 2°56.018 126.4 0.1 339 -999
2012-02-13 08:48:42 51°13.636 2°56.018 126.4 0.3 344 -999
2012-02-13 08:48:47 51°13.635 2°56.018 126.4 -999 152 -999
2012-02-13 08:48:52 51°13.635 2°56.019 126.4 0.1 158 -999
2012-02-13 08:48:57 51°13.635 2°56.019 126.4 0.1 167 -999
2012-02-13 08:49:02 51°13.636 2°56.018 126.4 0.1 146 -999
2012-02-13 08:49:08 51°13.635 2°56.018 126.4 -999 188 -999
2012-02-13 08:49:12 51°13.635 2°56.018 126.4 0.1 161 -999
2012-02-13 08:49:17 51°13.636 2°56.018 126.4 -999 252 -999
2012-02-13 08:49:22 51°13.636 2°56.018 126.4 0.1 274 -999
2012-02-13 08:49:28 51°13.636 2°56.018 126.4 -999 305 -999
2012-02-13 08:49:33 51°13.636 2°56.018 126.4 0.1 311 -999
2012-02-13 08:49:37 51°13.636 2°56.018 126.4 0.2 345 -999
2012-02-13 08:49:42 51°13.636 2°56.018 126.4 -999 155 -999
2012-02-13 08:49:47 51°13.636 2°56.019 126.4 0.2 144 -999
2012-02-13 08:49:53 51°13.636 2°56.018 126.4 -999 325 -999
2012-02-13 08:49:57 51°13.636 2°56.018 126.4 -999 221 -999
2012-02-13 08:50:02 51°13.636 2°56.018 126.4 0.1 220 -999
2012-02-13 08:50:07 51°13.636 2°56.018 126.4 -999 205 -999
2012-02-13 08:50:12 51°13.636 2°56.018 126.4 -999 311 -999
2012-02-13 08:50:17 51°13.636 2°56.018 126.4 0.1 15 -999
2012-02-13 08:50:22 51°13.636 2°56.019 126.4 0.1 29 -999
2012-02-13 08:50:27 51°13.636 2°56.019 126.4 -999 140 -999
2012-02-13 08:50:32 51°13.636 2°56.019 126.4 -999 75 -999
2012-02-13 08:50:37 51°13.636 2°56.018 126.4 0.1 338 -999
2012-02-13 08:50:42 51°13.636 2°56.018 126.4 0.1 246 -999
2012-02-13 08:50:47 51°13.636 2°56.019 126.4 0.2 179 -999
2012-02-13 08:50:52 51°13.636 2°56.019 126.4 0.1 162 -999
2012-02-13 08:50:57 51°13.636 2°56.018 126.4 0.1 312 -999
2012-02-13 08:51:02 51°13.636 2°56.018 126.4 0.1 256 -999
2012-02-13 08:51:07 51°13.636 2°56.018 126.4 0.1 178 -999
2012-02-13 08:51:12 51°13.636 2°56.018 126.4 0.1 164 -999
2012-02-13 08:51:18 51°13.636 2°56.018 126.4 0.1 344 -999
2012-02-13 08:51:22 51°13.636 2°56.018 126.4 0.2 346 -999
2012-02-13 08:51:27 51°13.636 2°56.018 126.4 0.1 336 -999
2012-02-13 08:51:32 51°13.635 2°56.018 126.4 0.1 229 -999
2012-02-13 08:51:37 51°13.636 2°56.018 126.4 0.1 338 -999
2012-02-13 08:51:42 51°13.636 2°56.018 126.4 0.1 338 -999
2012-02-13 08:51:46 51°13.635 2°56.018 126.4 -999 256 -999
2012-02-13 08:51:52 51°13.635 2°56.018 126.4 0.1 183 -999
2012-02-13 08:51:57 51°13.636 2°56.018 126.4 0.1 352 -999
2012-02-13 08:52:03 51°13.635 2°56.018 126.4 0.1 188 -999
2012-02-13 08:52:07 51°13.635 2°56.019 126.4 0.2 165 -999
2012-02-13 08:52:12 51°13.635 2°56.019 126.4 0.1 165 -999
2012-02-13 08:52:17 51°13.635 2°56.019 126.4 -999 169 -999
2012-02-13 08:52:22 51°13.635 2°56.018 126.4 0.2 324 -999
2012-02-13 08:52:27 51°13.635 2°56.018 126.4 0.1 261 -999
2012-02-13 08:52:32 51°13.635 2°56.019 126.4 -999 151 -999
2012-02-13 08:52:37 51°13.635 2°56.019 126.4 0.2 156 -999
2012-02-13 08:52:42 51°13.635 2°56.019 126.4 0.1 133 -999
2012-02-13 08:52:47 51°13.635 2°56.019 126.4 0.1 173 -999
2012-02-13 08:52:52 51°13.635 2°56.019 126.4 -999 225 -999
2012-02-13 08:52:57 51°13.635 2°56.019 126.4 0.1 201 -999
2012-02-13 08:53:02 51°13.635 2°56.019 126.4 -999 338 -999
2012-02-13 08:53:07 51°13.635 2°56.019 126.4 0.1 184 -999
2012-02-13 08:53:12 51°13.635 2°56.019 126.4 0.2 172 -999
2012-02-13 08:53:17 51°13.635 2°56.019 126.4 0.1 319 -999
2012-02-13 08:53:22 51°13.635 2°56.019 126.4 0.1 179 -999
2012-02-13 08:53:28 51°13.635 2°56.019 126.4 0.1 167 -999
2012-02-13 08:53:32 51°13.635 2°56.019 126.4 0.1 205 -999
2012-02-13 08:53:37 51°13.635 2°56.019 126.4 0.2 166 -999
2012-02-13 08:53:42 51°13.635 2°56.018 126.4 -999 279 -999
2012-02-13 08:53:47 51°13.635 2°56.018 126.4 0.1 193 -999
2012-02-13 08:53:52 51°13.635 2°56.019 126.4 0.1 169 -999
2012-02-13 08:53:57 51°13.635 2°56.019 126.4 0.2 169 -999
2012-02-13 08:54:02 51°13.635 2°56.019 126.4 0.2 131 -999
2012-02-13 08:54:08 51°13.635 2°56.018 126.3 0.1 249 -999
2012-02-13 08:54:12 51°13.635 2°56.018 126.2 0.1 220 -999
2012-02-13 08:54:17 51°13.635 2°56.018 126.2 0.1 243 -999
2012-02-13 08:54:22 51°13.635 2°56.018 126.2 0.2 197 -999
2012-02-13 08:54:26 51°13.635 2°56.018 126.2 0.1 340 -999
2012-02-13 08:54:32 51°13.635 2°56.018 126.2 0.1 317 -999